메인 페이지
METAR-TAF:

METAR-TAF

공항 :

산후안, 푸에르토리코, 미국

위도: 18-27N, 경도: 066-00W, 고도: 3m

현재 날씨관측

예보는 39분 전, 09:56시(UTC)에 발표되었습니다.
무풍
온도 24°C
습도 83%
기압 1019 hPa
시정: 16.1km
고도 2800ft 상공 구름 조금
고도 4700ft 상공 구름 보통
고도 7500ft 상공 구름 보통

METAR: TJSJ 180956Z 00000KT 10SM FEW028 SCT047 SCT075 24/21 A3008 RMK AO2 RAB18E53 SLP184 P0000 T02390211 $

시각: 06:35 (10:35 UTC)

예보

예보는 4 시간 30분 전, 06:05시(UTC)에 발표되었습니다.
예보 대상 시간: 18일 06시부터 19일 06시까지 (UTC)
동남동3kt
시정: 10km
고도 2500ft 상공 구름 보통
고도 4000ft 상공 구름 보통
시계 내 소나기
일시적
18일 08시부터 18일 12시까지 (UTC)
여러 방향의 바람 12kt, 순간 최대 풍속 18kt
시정: 8.0km
고도 2500ft 상공 구름 많음
고도 4000ft 상공 구름 많음
소나기
18일 1430시부터 (UTC)
동북동16kt, 순간 최대 풍속 26kt
시정: 10km
고도 3000ft 상공 구름 조금
고도 5000ft 상공 구름 보통
18일 2200시부터 (UTC)
동북동15kt
시정: 10km
고도 2200ft 상공 구름 보통
고도 4000ft 상공 구름 보통
시계 내 소나기

TAF: TJSJ 180605Z 1806/1906 11003KT P6SM VCSH SCT025 SCT040 TEMPO 1808/1812 VRB12G18KT 5SM SHRA BKN025 BKN040 FM181430 06016G26KT P6SM FEW030 SCT050 FM182200 07015KT P6SM VCSH SCT022 SCT040

4,000개 이상의 공항 관측 자료 및 예보 (METAR 및 TAF 보고).

지도상에서 검색 가능한 기상관측소가 노란 점과 빨간 점으로 표시되어 있습니다.

기상관측소 명을 보려면 표시 위로 마우스를 이동하세요.

날씨 관측과 예보를 보려면 클릭하세요.

지도 변경 : 확대하려면 엑스 표시가 있는 녹색 버튼, 축소하려면 빼기 표시가 있는 녹색 버튼, 다음 페이지의 지도를 보려면 녹색 화살표를 클릭하세요.


METAR-TAF: